createdAt,value
2023-01-21T00:00:29.825Z,78.51
2023-01-21T00:05:32.468Z,77.73
2023-01-21T00:10:35.106Z,77.97
2023-01-21T00:15:37.845Z,77.94
2023-01-21T00:20:40.478Z,77.88
2023-01-21T00:25:43.060Z,77.32
2023-01-21T00:30:45.699Z,77.79
2023-01-21T00:36:00.491Z,77.36
2023-01-21T00:41:08.889Z,76.91
2023-01-21T00:46:11.884Z,77.18
2023-01-21T00:51:14.598Z,77.18
2023-01-21T00:56:17.172Z,77.24
2023-01-21T01:01:21.263Z,76.20
2023-01-21T01:06:24.552Z,76.36
2023-01-21T01:11:28.184Z,76.30
2023-01-21T01:16:30.882Z,76.03
2023-01-21T01:21:33.604Z,75.22
2023-01-21T01:26:36.458Z,75.09
2023-01-21T01:31:39.534Z,74.61
2023-01-21T01:36:42.301Z,74.55
2023-01-21T01:41:44.950Z,73.80
2023-01-21T01:46:47.660Z,73.19
2023-01-21T01:52:03.211Z,73.48
2023-01-21T01:57:09.531Z,73.12
2023-01-21T02:02:16.141Z,72.56
2023-01-21T02:07:20.124Z,72.10
2023-01-21T02:12:23.272Z,71.94
2023-01-21T02:17:44.526Z,71.52
2023-01-21T02:23:13.015Z,71.09
2023-01-21T02:28:47.976Z,70.37
2023-01-21T02:34:06.365Z,70.25
2023-01-21T02:39:31.814Z,69.61
2023-01-21T02:44:46.903Z,69.13
2023-01-21T02:49:59.616Z,69.61
2023-01-21T02:55:03.587Z,68.89
2023-01-21T03:00:13.129Z,69.12
2023-01-21T03:05:18.471Z,68.71
2023-01-21T03:10:45.555Z,68.64
2023-01-21T03:16:15.714Z,68.90
2023-01-21T03:21:25.553Z,68.36
2023-01-21T03:26:35.912Z,68.20
2023-01-21T03:31:42.845Z,68.05
2023-01-21T03:36:53.512Z,67.89
2023-01-21T03:41:56.212Z,68.07
2023-01-21T03:47:01.468Z,67.76
2023-01-21T03:52:06.606Z,67.00
2023-01-21T03:57:09.190Z,67.25
2023-01-21T04:02:12.258Z,66.67
2023-01-21T04:07:17.880Z,66.70
2023-01-21T04:12:20.462Z,66.62
2023-01-21T04:17:23.059Z,66.57
2023-01-21T04:22:25.773Z,66.47
2023-01-21T04:27:28.344Z,66.42
2023-01-21T04:32:30.870Z,65.73
2023-01-21T04:37:33.468Z,65.84
2023-01-21T04:42:35.981Z,65.83
2023-01-21T04:47:45.010Z,65.25
2023-01-21T04:52:47.554Z,65.29
2023-01-21T04:57:50.089Z,64.84
2023-01-21T05:02:52.594Z,64.90
2023-01-21T05:07:55.757Z,64.53
2023-01-21T05:12:59.147Z,64.51
2023-01-21T05:18:01.701Z,64.85
2023-01-21T05:23:04.461Z,64.33
2023-01-21T05:28:07.035Z,64.59
2023-01-21T05:33:09.575Z,64.53
2023-01-21T05:38:12.133Z,64.57
2023-01-21T05:43:14.678Z,64.26
2023-01-21T05:48:17.211Z,64.20
2023-01-21T05:53:19.826Z,63.85
2023-01-21T05:58:23.584Z,64.06
2023-01-21T06:03:26.457Z,64.04
2023-01-21T06:08:29.286Z,64.02
2023-01-21T06:13:31.902Z,63.87
2023-01-21T06:18:35.217Z,63.89
2023-01-21T06:23:37.866Z,64.00
2023-01-21T06:28:40.549Z,63.81
2023-01-21T06:33:43.070Z,63.86
2023-01-21T06:38:45.591Z,63.82
2023-01-21T06:43:48.165Z,63.26
2023-01-21T06:48:52.143Z,63.13
2023-01-21T06:53:54.772Z,62.79
2023-01-21T06:58:57.424Z,63.10
2023-01-21T07:04:01.590Z,62.96
2023-01-21T07:09:05.361Z,62.77
2023-01-21T07:14:08.017Z,62.70
2023-01-21T07:19:11.778Z,62.17
2023-01-21T07:24:14.292Z,62.14
2023-01-21T07:29:17.041Z,62.40
2023-01-21T07:34:19.705Z,61.90
2023-01-21T07:39:22.265Z,61.18
2023-01-21T07:44:24.878Z,61.84
2023-01-21T07:49:27.394Z,60.81
2023-01-21T07:54:30.004Z,61.30
2023-01-21T07:59:32.541Z,61.14
2023-01-21T08:04:35.116Z,60.17
2023-01-21T08:09:37.771Z,60.61
2023-01-21T08:14:40.327Z,60.11
2023-01-21T08:19:42.886Z,59.29
2023-01-21T08:24:45.758Z,59.23
2023-01-21T08:29:48.773Z,59.59
2023-01-21T08:34:51.360Z,59.51
2023-01-21T08:39:53.938Z,59.00
2023-01-21T08:44:56.456Z,58.99
2023-01-21T08:49:59.013Z,58.14
2023-01-21T08:55:01.759Z,58.22
2023-01-21T09:00:06.247Z,57.84
2023-01-21T09:05:08.973Z,57.45
2023-01-21T09:10:12.304Z,56.91
2023-01-21T09:15:15.590Z,56.31
2023-01-21T09:20:18.452Z,56.68
2023-01-21T09:25:23.169Z,56.68
2023-01-21T09:30:25.990Z,56.17
2023-01-21T09:35:28.665Z,55.33
2023-01-21T09:40:31.354Z,55.52
2023-01-21T09:45:34.201Z,55.30
2023-01-21T09:50:40.156Z,54.73
2023-01-21T09:55:49.865Z,55.08
2023-01-21T10:00:58.942Z,54.66
2023-01-21T10:06:12.353Z,54.42
2023-01-21T10:11:34.510Z,54.18
2023-01-21T10:16:49.650Z,54.00
2023-01-21T10:22:03.978Z,54.49
2023-01-21T10:27:15.721Z,53.73
2023-01-21T10:32:23.023Z,53.70
2023-01-21T10:37:47.383Z,53.68
2023-01-21T10:43:03.404Z,52.98
2023-01-21T10:48:36.259Z,53.30
2023-01-21T10:53:58.529Z,53.47
2023-01-21T10:59:06.392Z,53.04
2023-01-21T11:04:19.808Z,53.15
2023-01-21T11:09:26.380Z,53.58
2023-01-21T11:14:29.265Z,53.67
2023-01-21T11:19:32.088Z,53.32
2023-01-21T11:24:49.839Z,52.74
2023-01-21T11:29:52.374Z,53.35
2023-01-21T11:35:10.697Z,53.47
2023-01-21T11:40:27.107Z,53.34
2023-01-21T11:45:37.968Z,53.12
2023-01-21T11:50:40.901Z,52.73
2023-01-21T11:55:51.071Z,53.19
2023-01-21T12:00:56.689Z,53.64
2023-01-21T12:06:04.368Z,53.48
2023-01-21T12:11:11.550Z,53.72
2023-01-21T12:16:43.350Z,53.83
2023-01-21T12:22:02.946Z,53.72
2023-01-21T12:27:27.838Z,54.67
2023-01-21T12:32:38.590Z,54.67
2023-01-21T12:37:48.441Z,55.13
2023-01-21T12:42:57.029Z,55.06
2023-01-21T12:48:10.537Z,55.10
2023-01-21T12:53:42.140Z,55.89
2023-01-21T12:58:53.539Z,55.59
2023-01-21T13:04:06.886Z,55.85
2023-01-21T13:09:19.799Z,55.79
2023-01-21T13:14:39.573Z,55.84
2023-01-21T13:19:42.077Z,55.48
2023-01-21T13:25:06.407Z,55.91
2023-01-21T13:30:30.598Z,55.82
2023-01-21T13:35:43.261Z,56.02
2023-01-21T13:41:04.689Z,55.90
2023-01-21T13:46:07.223Z,56.19
2023-01-21T13:51:29.181Z,56.21
2023-01-21T13:56:46.769Z,56.05
2023-01-21T14:01:56.505Z,56.54
2023-01-21T14:07:16.386Z,56.50
2023-01-21T14:12:40.712Z,56.66
2023-01-21T14:18:06.300Z,56.45
2023-01-21T14:23:35.205Z,56.36
2023-01-21T14:28:51.465Z,56.66
2023-01-21T14:34:34.355Z,56.88
2023-01-21T14:40:02.145Z,56.83
2023-01-21T14:45:08.352Z,56.80
2023-01-21T14:50:11.022Z,57.25
2023-01-21T14:55:33.117Z,56.72
2023-01-21T15:00:37.220Z,56.93
2023-01-21T15:05:42.266Z,56.85
2023-01-21T15:10:54.583Z,56.79
2023-01-21T15:16:06.416Z,56.84
2023-01-21T15:21:27.670Z,56.74
2023-01-21T15:26:32.515Z,57.12
2023-01-21T15:31:45.000Z,56.79
2023-01-21T15:36:53.150Z,57.20
2023-01-21T15:42:02.860Z,56.94
2023-01-21T15:47:11.930Z,57.22
2023-01-21T15:52:24.255Z,57.10
2023-01-21T15:57:59.665Z,56.70
2023-01-21T16:03:11.326Z,57.03
2023-01-21T16:08:35.257Z,57.11
2023-01-21T16:14:01.309Z,56.71
2023-01-21T16:19:11.500Z,57.03
2023-01-21T16:24:17.555Z,57.01
2023-01-21T16:29:20.205Z,56.84
2023-01-21T16:34:31.991Z,57.08
2023-01-21T16:39:34.450Z,56.97
2023-01-21T16:44:37.178Z,57.15
2023-01-21T16:49:43.348Z,57.59
2023-01-21T16:54:54.714Z,57.90
2023-01-21T16:59:58.193Z,58.36
2023-01-21T17:05:08.344Z,58.41
2023-01-21T17:10:13.752Z,58.85
2023-01-21T17:15:41.957Z,58.73
2023-01-21T17:20:49.679Z,59.08
2023-01-21T17:26:03.615Z,59.18
2023-01-21T17:31:37.041Z,59.13
2023-01-21T17:36:40.212Z,59.71
2023-01-21T17:41:46.259Z,59.19
2023-01-21T17:46:54.388Z,59.43
2023-01-21T17:51:57.037Z,59.94
2023-01-21T17:57:00.625Z,59.91
2023-01-21T18:02:11.239Z,60.34
2023-01-21T18:07:30.036Z,60.51
2023-01-21T18:12:32.660Z,60.33
2023-01-21T18:17:37.764Z,60.97
2023-01-21T18:22:40.334Z,61.04
2023-01-21T18:27:47.081Z,60.85
2023-01-21T18:32:52.709Z,61.30
2023-01-21T18:37:55.622Z,60.92
2023-01-21T18:42:58.194Z,61.32
2023-01-21T18:48:00.908Z,61.49
2023-01-21T18:53:03.507Z,61.53
2023-01-21T18:58:12.224Z,61.45
2023-01-21T19:03:15.370Z,61.17
2023-01-21T19:08:22.759Z,61.57
2023-01-21T19:13:25.393Z,61.63
2023-01-21T19:18:28.200Z,61.99
2023-01-21T19:23:30.729Z,61.94
2023-01-21T19:28:34.090Z,61.68
2023-01-21T19:33:36.752Z,61.78
2023-01-21T19:38:40.453Z,61.34
2023-01-21T19:43:44.197Z,61.76
2023-01-21T19:48:50.436Z,61.81
2023-01-21T19:53:52.972Z,61.73
2023-01-21T19:58:55.664Z,61.93
2023-01-21T20:04:00.635Z,61.33
2023-01-21T20:09:05.404Z,61.59
2023-01-21T20:14:08.081Z,61.40
2023-01-21T20:19:14.124Z,61.26
2023-01-21T20:24:17.798Z,61.84
2023-01-21T20:29:22.186Z,62.09
2023-01-21T20:34:24.953Z,62.27
2023-01-21T20:39:27.501Z,62.23
2023-01-21T20:44:30.181Z,62.12
2023-01-21T20:49:32.721Z,61.91
2023-01-21T20:54:35.408Z,62.21
2023-01-21T20:59:37.952Z,62.25
2023-01-21T21:04:40.509Z,62.38
2023-01-21T21:09:43.145Z,62.40
2023-01-21T21:14:45.680Z,62.73
2023-01-21T21:19:48.197Z,62.39
2023-01-21T21:24:50.854Z,62.66
2023-01-21T21:29:56.108Z,63.28
2023-01-21T21:34:58.686Z,63.43
2023-01-21T21:40:01.225Z,63.30
2023-01-21T21:45:03.871Z,64.00
2023-01-21T21:50:06.816Z,64.20
2023-01-21T21:55:14.530Z,64.44
2023-01-21T22:00:18.660Z,64.57
2023-01-21T22:05:21.250Z,64.49
2023-01-21T22:10:23.926Z,64.62
2023-01-21T22:15:26.500Z,64.76
2023-01-21T22:20:29.003Z,65.33
2023-01-21T22:25:31.604Z,65.35
2023-01-21T22:30:34.241Z,65.61
2023-01-21T22:35:36.893Z,66.05
2023-01-21T22:40:40.294Z,66.00
2023-01-21T22:45:47.469Z,66.22
2023-01-21T22:50:55.097Z,66.50
2023-01-21T22:56:00.993Z,66.12
2023-01-21T23:01:04.261Z,66.02
2023-01-21T23:06:08.447Z,66.99
2023-01-21T23:11:12.431Z,66.86
2023-01-21T23:16:17.817Z,67.27
2023-01-21T23:21:22.000Z,66.86
2023-01-21T23:26:24.620Z,66.65
2023-01-21T23:31:27.313Z,66.78
2023-01-21T23:36:30.414Z,66.91
2023-01-21T23:41:33.054Z,66.82
2023-01-21T23:46:43.674Z,67.55
2023-01-21T23:51:47.465Z,67.29
2023-01-21T23:56:49.988Z,67.62
